Time;durP1;ratioP1;P1;durP2;ratioP2;P2;SDS_P1;SDS_P2;PMS_P1;PMS_P2;Temp;Humidity;BMP_temperature;BMP_pressure;BME280_temperature;BME280_humidity;BME280_pressure;Samples;Min_cycle;Max_cycle;Signal;HPM_P1;HPM_P2
2022/12/26 01:01:46;;;;;;;9.77;3.63;;;9.70;99.90;;;;;;5160715;27;20486;-92
2022/12/26 01:04:18;;;;;;;11.27;3.67;;;9.70;99.90;;;;;;5159435;27;20269;-93
2022/12/26 01:06:52;;;;;;;13.40;3.63;;;9.70;99.90;;;;;;5161103;27;20250;-92
2022/12/26 01:09:23;;;;;;;6.47;3.20;;;9.70;99.90;;;;;;5166144;27;20229;-91
2022/12/26 01:11:54;;;;;;;12.97;3.20;;;9.70;99.90;;;;;;5165131;27;20233;-91
2022/12/26 01:14:28;;;;;;;9.40;3.50;;;9.70;99.90;;;;;;5166551;27;20211;-91
2022/12/26 01:17:02;;;;;;;10.83;3.47;;;9.80;99.90;;;;;;5171712;27;20201;-91
2022/12/26 01:19:34;;;;;;;8.47;3.70;;;9.80;99.90;;;;;;5174709;27;20221;-90
2022/12/26 01:22:07;;;;;;;11.57;3.93;;;9.80;99.90;;;;;;5152192;27;20262;-91
2022/12/26 01:24:40;;;;;;;13.23;4.73;;;9.70;99.90;;;;;;5135917;27;20282;-89
2022/12/26 01:27:15;;;;;;;12.80;5.80;;;9.80;99.90;;;;;;5158626;27;20237;-91
2022/12/26 01:29:46;;;;;;;15.23;6.33;;;9.80;99.90;;;;;;5168479;27;20251;-91
2022/12/26 01:32:22;;;;;;;14.93;6.93;;;9.70;99.90;;;;;;5163114;27;20193;-91
2022/12/26 01:34:54;;;;;;;12.97;7.73;;;9.70;99.90;;;;;;5156246;27;20279;-91
2022/12/26 01:37:27;;;;;;;15.07;8.00;;;9.70;99.90;;;;;;5154530;27;20597;-90
2022/12/26 01:39:58;;;;;;;16.13;9.23;;;9.60;99.90;;;;;;5155508;27;20205;-91
2022/12/26 01:42:40;;;;;;;15.53;8.53;;;9.60;99.90;;;;;;5156023;27;20219;-93
2022/12/26 01:45:25;;;;;;;18.93;9.53;;;9.70;99.90;;;;;;5156215;27;20208;-92
2022/12/26 01:48:06;;;;;;;17.93;9.73;;;9.70;99.90;;;;;;5157775;27;20201;-91
2022/12/26 01:50:44;;;;;;;16.80;9.93;;;9.70;99.90;;;;;;5155958;27;20331;-91
2022/12/26 01:53:28;;;;;;;13.77;9.63;;;9.70;99.90;;;;;;5163425;27;20193;-92
2022/12/26 01:56:02;;;;;;;14.57;10.23;;;9.70;99.90;;;;;;5164326;27;20209;-92
2022/12/26 01:58:36;;;;;;;26.93;19.37;;;9.70;99.90;;;;;;5171035;27;20204;-92
2022/12/26 02:01:10;;;;;;;15.73;10.37;;;9.70;99.90;;;;;;5150828;27;20234;-92
2022/12/26 02:06:40;;;;;;;10.27;7.00;;;9.90;99.90;;;;;;5123279;28;20680;-91
2022/12/26 02:09:12;;;;;;;10.33;5.20;;;10.00;99.90;;;;;;5121655;28;20209;-91
2022/12/26 02:11:46;;;;;;;8.47;5.07;;;10.00;99.90;;;;;;5120460;28;20232;-92
2022/12/26 02:14:39;;;;;;;7.77;3.47;;;10.10;99.90;;;;;;5118464;28;20244;-92
2022/12/26 02:17:13;;;;;;;5.40;3.37;;;10.20;99.90;;;;;;5118630;28;20214;-91
2022/12/26 02:19:51;;;;;;;16.57;3.73;;;10.40;99.90;;;;;;5133307;27;20655;-90
2022/12/26 02:26:03;;;;;;;5.83;2.80;;;10.50;99.90;;;;;;5139760;27;20223;-91
2022/12/26 02:28:52;;;;;;;3.87;2.40;;;10.60;99.90;;;;;;5127883;27;20225;-91
2022/12/26 02:31:40;;;;;;;5.73;2.77;;;10.60;99.90;;;;;;5137709;27;20225;-91
2022/12/26 02:34:20;;;;;;;6.07;3.10;;;10.50;99.90;;;;;;5137609;27;20201;-88
2022/12/26 02:37:12;;;;;;;6.83;2.40;;;10.50;99.90;;;;;;5138363;27;20201;-89
2022/12/26 02:40:01;;;;;;;8.63;4.03;;;10.50;99.90;;;;;;5138138;27;20209;-90
2022/12/26 02:42:50;;;;;;;8.40;4.30;;;10.40;99.90;;;;;;5120144;27;20256;-90
2022/12/26 02:48:31;;;;;;;18.63;7.27;;;10.40;99.90;;;;;;5137586;27;20232;-91
2022/12/26 03:14:23;;;;;;;8.73;5.10;;;10.20;99.90;;;;;;5136824;27;20292;-91
2022/12/26 03:20:00;;;;;;;7.73;3.80;;;10.20;99.90;;;;;;5138666;27;20207;-92
2022/12/26 03:22:40;;;;;;;7.07;3.33;;;10.20;99.90;;;;;;5136320;27;20643;-91
2022/12/26 03:28:08;;;;;;;6.53;2.97;;;10.30;99.90;;;;;;5155679;27;20217;-91
2022/12/26 03:30:50;;;;;;;5.00;2.57;;;10.40;99.90;;;;;;5143800;27;20222;-90
2022/12/26 04:20:26;;;;;;;9.10;3.70;;;10.10;99.90;;;;;;5133471;27;20210;-91
2022/12/26 04:46:22;;;;;;;6.60;4.07;;;10.00;99.90;;;;;;5136707;27;20201;-90
2022/12/26 04:51:49;;;;;;;6.80;3.93;;;10.00;99.90;;;;;;5116079;28;20710;-91
2022/12/26 04:54:20;;;;;;;8.40;4.13;;;9.90;99.90;;;;;;5114261;28;20213;-91
2022/12/26 04:56:54;;;;;;;7.50;4.00;;;9.90;99.90;;;;;;5121397;28;20190;-93
2022/12/26 04:59:26;;;;;;;6.10;4.30;;;9.80;99.90;;;;;;5136139;28;20207;-91
2022/12/26 05:10:32;;;;;;;5.07;2.60;;;9.80;99.90;;;;;;5135848;28;20677;-92
2022/12/26 05:13:03;;;;;;;6.30;2.90;;;9.70;99.90;;;;;;5134991;27;20201;-93
2022/12/26 05:28:40;;;;;;;7.33;2.60;;;9.80;99.90;;;;;;5130455;28;20209;-92
2022/12/26 05:29:51;;;;;;;8.83;3.23;;;9.80;99.90;;;;;;5140956;28;20272;-90
2022/12/26 05:35:10;;;;;;;5.30;3.60;;;9.80;99.90;;;;;;5119491;28;20620;-89
2022/12/26 05:37:43;;;;;;;5.27;3.50;;;9.70;99.90;;;;;;5140546;27;20265;-89
2022/12/26 05:40:18;;;;;;;7.33;3.37;;;9.80;99.90;;;;;;5143218;27;20225;-91
2022/12/26 05:42:49;;;;;;;7.70;3.53;;;9.80;99.90;;;;;;5156440;27;20216;-88
2022/12/26 05:45:27;;;;;;;8.60;3.70;;;9.80;99.90;;;;;;5148849;27;20205;-89
2022/12/26 05:48:01;;;;;;;10.43;3.47;;;9.70;99.90;;;;;;5144089;27;20584;-89
2022/12/26 05:50:34;;;;;;;4.10;2.97;;;9.70;99.90;;;;;;5146955;27;20265;-90
2022/12/26 05:53:10;;;;;;;9.07;3.33;;;9.70;99.90;;;;;;5137691;27;20274;-90
2022/12/26 05:55:42;;;;;;;5.20;3.50;;;9.80;99.90;;;;;;5140438;27;20273;-90
2022/12/26 05:58:16;;;;;;;8.33;3.50;;;9.80;99.90;;;;;;5139702;27;20212;-90
2022/12/26 06:00:49;;;;;;;9.50;3.37;;;9.80;99.90;;;;;;5128327;27;20224;-90
2022/12/26 06:03:25;;;;;;;6.07;3.80;;;9.90;99.90;;;;;;5120296;28;20200;-92
2022/12/26 06:05:59;;;;;;;10.40;5.23;;;9.80;99.90;;;;;;5118157;28;20628;-91
2022/12/26 06:08:32;;;;;;;9.30;5.10;;;9.80;99.90;;;;;;5118443;28;20226;-92
2022/12/26 06:11:06;;;;;;;9.27;5.10;;;9.80;99.90;;;;;;5118332;28;20293;-91
2022/12/26 06:16:25;;;;;;;14.87;6.53;;;9.80;99.90;;;;;;4997010;28;20301;-91
2022/12/26 06:18:57;;;;;;;13.83;6.43;;;9.80;99.90;;;;;;5014160;28;20209;-90
2022/12/26 06:21:29;;;;;;;113.10;11.70;;;9.80;99.90;;;;;;5017958;28;20285;-91
2022/12/26 06:24:17;;;;;;;18.23;6.40;;;9.80;99.90;;;;;;5017589;28;20775;-90
2022/12/26 06:26:48;;;;;;;242.70;16.47;;;9.80;99.90;;;;;;5009890;28;20297;-90
2022/12/26 06:29:19;;;;;;;31.63;8.27;;;9.80;99.90;;;;;;4998560;28;20212;-90
2022/12/26 06:31:50;;;;;;;16.07;7.30;;;9.80;99.90;;;;;;4997357;28;20290;-90
2022/12/26 06:34:22;;;;;;;7.17;6.47;;;9.80;99.90;;;;;;4998914;28;20214;-90
2022/12/26 06:36:55;;;;;;;9.80;7.00;;;9.80;99.90;;;;;;4986762;28;20280;-88
2022/12/26 06:39:29;;;;;;;9.27;6.17;;;9.70;99.90;;;;;;4997991;28;20208;-89
2022/12/26 06:42:01;;;;;;;16.97;6.50;;;9.70;99.90;;;;;;4997320;28;20215;-90
2022/12/26 06:44:32;;;;;;;9.73;6.60;;;9.70;99.90;;;;;;4996661;28;20333;-90
2022/12/26 06:47:04;;;;;;;10.60;5.63;;;9.70;99.90;;;;;;4997355;28;20293;-91
2022/12/26 06:49:35;;;;;;;11.30;5.93;;;9.70;99.90;;;;;;4996932;28;20221;-90
2022/12/26 06:52:09;;;;;;;12.30;6.20;;;9.70;99.90;;;;;;4994297;28;20243;-91
2022/12/26 06:54:48;;;;;;;65.77;8.37;;;9.70;99.90;;;;;;4993755;28;20209;-91
2022/12/26 06:57:19;;;;;;;8.23;6.00;;;9.80;99.90;;;;;;4999348;28;20948;-91
2022/12/26 06:59:50;;;;;;;8.67;6.10;;;9.70;99.90;;;;;;4998363;28;20216;-90
2022/12/26 07:02:23;;;;;;;11.63;6.50;;;9.70;99.90;;;;;;5006468;28;20214;-89
2022/12/26 07:04:55;;;;;;;20.73;5.97;;;9.70;99.90;;;;;;5018897;28;20713;-89
2022/12/26 07:07:29;;;;;;;16.33;6.83;;;9.70;99.90;;;;;;5016159;28;20206;-90
2022/12/26 07:10:02;;;;;;;25.30;7.20;;;9.70;99.90;;;;;;5005492;28;20297;-90
2022/12/26 07:12:36;;;;;;;12.40;5.60;;;9.70;99.90;;;;;;4976990;28;20226;-90
2022/12/26 07:15:09;;;;;;;11.13;4.77;;;9.70;99.90;;;;;;4977036;28;20223;-90
2022/12/26 07:17:43;;;;;;;5.70;4.27;;;9.70;99.90;;;;;;4986617;28;20210;-90
2022/12/26 07:20:21;;;;;;;19.47;4.40;;;9.70;99.90;;;;;;5009758;28;20287;-91
2022/12/26 07:22:52;;;;;;;12.20;4.07;;;9.70;99.90;;;;;;5017944;28;20207;-90
2022/12/26 07:25:26;;;;;;;5.97;3.30;;;9.70;99.90;;;;;;5016673;28;20209;-91
2022/12/26 07:28:01;;;;;;;6.03;3.93;;;9.70;99.90;;;;;;5014967;28;20210;-90
2022/12/26 07:30:33;;;;;;;9.70;3.50;;;9.70;99.90;;;;;;4977550;28;20291;-90
2022/12/26 07:33:06;;;;;;;8.10;3.80;;;9.80;99.90;;;;;;4977985;28;20249;-90
2022/12/26 07:35:38;;;;;;;7.87;4.33;;;9.70;99.90;;;;;;4978132;28;20222;-90
2022/12/26 07:38:10;;;;;;;6.10;4.30;;;9.70;99.90;;;;;;5003414;28;20619;-91
2022/12/26 07:40:44;;;;;;;18.67;4.50;;;9.70;99.90;;;;;;5017259;28;20675;-91
2022/12/26 07:43:15;;;;;;;17.07;4.03;;;9.70;99.90;;;;;;5017553;28;20241;-89
2022/12/26 07:45:47;;;;;;;7.80;3.67;;;9.60;99.90;;;;;;5016178;28;20212;-89
2022/12/26 07:48:18;;;;;;;5.20;2.73;;;9.60;99.90;;;;;;5020476;28;20228;-89
2022/12/26 07:50:50;;;;;;;5.73;2.40;;;9.60;99.90;;;;;;5009734;28;20654;-90
2022/12/26 07:53:22;;;;;;;4.50;2.43;;;9.60;99.90;;;;;;4994322;28;20253;-90
2022/12/26 07:56:04;;;;;;;2.20;2.00;;;9.60;99.90;;;;;;5007229;28;20210;-90
2022/12/26 07:58:36;;;;;;;3.57;1.93;;;9.60;99.90;;;;;;5036047;28;20237;-90
2022/12/26 08:01:10;;;;;;;2.27;1.90;;;9.60;99.90;;;;;;5027820;28;20202;-90
2022/12/26 08:03:41;;;;;;;4.73;2.40;;;9.60;99.90;;;;;;5017334;28;20234;-89
2022/12/26 08:06:13;;;;;;;7.10;2.00;;;9.50;99.90;;;;;;4999536;28;20660;-90
2022/12/26 08:08:48;;;;;;;4.80;2.00;;;9.50;99.90;;;;;;5005395;28;20719;-90
2022/12/26 08:11:36;;;;;;;6.77;2.30;;;9.50;99.90;;;;;;4999052;28;20678;-88
2022/12/26 08:14:07;;;;;;;4.20;2.07;;;9.50;99.90;;;;;;4996345;28;20242;-92
2022/12/26 08:16:43;;;;;;;2.50;1.77;;;9.50;99.90;;;;;;4996337;28;20627;-92
2022/12/26 08:19:26;;;;;;;3.03;2.03;;;9.50;99.90;;;;;;4996453;28;20620;-91
2022/12/26 08:22:06;;;;;;;7.57;1.53;;;9.40;99.90;;;;;;4990979;28;20215;-92
2022/12/26 08:24:47;;;;;;;3.00;1.70;;;9.40;99.90;;;;;;4979274;28;20202;-91
2022/12/26 08:27:20;;;;;;;4.03;1.63;;;9.40;99.90;;;;;;4976465;28;20302;-91
2022/12/26 08:29:53;;;;;;;2.33;1.60;;;9.40;99.90;;;;;;4977197;28;20234;-91
2022/12/26 08:32:24;;;;;;;6.10;1.60;;;9.40;99.90;;;;;;4996798;28;20241;-89
2022/12/26 08:34:55;;;;;;;2.97;1.37;;;9.40;99.90;;;;;;4995655;28;20214;-89
2022/12/26 08:37:26;;;;;;;4.57;1.20;;;9.40;99.90;;;;;;4995700;28;20238;-91
2022/12/26 08:39:57;;;;;;;5.17;1.60;;;9.40;99.90;;;;;;4984912;28;20293;-90
2022/12/26 08:42:32;;;;;;;2.27;1.63;;;9.40;99.90;;;;;;4976077;28;20286;-91
2022/12/26 08:45:25;;;;;;;1.97;1.10;;;9.40;99.90;;;;;;4975248;28;20553;-90
2022/12/26 08:48:03;;;;;;;5.70;1.57;;;9.40;99.90;;;;;;4979429;28;20210;-90
